Eden, Wisconsin
Current Conditions -  °F | °C
As of 8:53 PM on Sunday 23 Nov 2014 (Local Time) from KFLD Reporting Station
Light Rain Light Rain  
Wind Chill: 44°   Ceiling: 6000
Heat Index: 47°   Visibility: 4mi
Dew Point: 44°   Wind: 7mph
Humidity: 90%   Direction: 140°SE
Pressure: 29.25"   Gusts: NA
Location:  43.69°N, 88.36°W
Report Text: KFLD 240253Z AUTO 14006KT 4SM -RA BR FEW047 OVC060 08/07 A2925 RMK AO2 SLP908 P0003 60007 T00830067 58045
Loading
Personal Weather Stations






























Interactive Weather Map New forecast layout! Learn more

10-Day Weather Forecast

Advertisements
Track Severe Weather on mobile